Time;durP1;ratioP1;P1;durP2;ratioP2;P2;SDS_P1;SDS_P2;PMS_P1;PMS_P2;Temp;Humidity;BMP_temperature;BMP_pressure;BME280_temperature;BME280_humidity;BME280_pressure;Samples;Min_cycle;Max_cycle;Signal;HPM_P1;HPM_P2
2022/01/17 00:01:16;;;;;;;12.50;9.67;;;3.80;99.90;;;;;;4974391;28;20467;-63
2022/01/17 00:03:42;;;;;;;9.30;8.10;;;3.80;99.90;;;;;;4974228;28;20427;-63
2022/01/17 00:06:08;;;;;;;13.33;8.43;;;3.70;99.90;;;;;;4972841;28;20474;-63
2022/01/17 00:08:34;;;;;;;10.83;8.20;;;3.70;99.90;;;;;;4974493;28;20191;-63
2022/01/17 00:11:00;;;;;;;11.57;8.60;;;3.70;99.90;;;;;;4974192;28;20235;-63
2022/01/17 00:13:28;;;;;;;11.47;9.00;;;3.80;99.90;;;;;;4974327;28;20466;-63
2022/01/17 00:16:05;;;;;;;10.20;8.33;;;3.80;99.90;;;;;;4974153;28;20960;-63
2022/01/17 00:21:03;;;;;;;10.33;8.27;;;3.80;99.90;;;;;;4974161;28;20459;-63
2022/01/17 00:23:29;;;;;;;12.87;8.23;;;3.80;99.90;;;;;;4973795;28;20432;-63
2022/01/17 00:25:55;;;;;;;9.93;8.73;;;3.80;99.90;;;;;;4973335;28;20439;-63
2022/01/17 00:28:20;;;;;;;10.37;8.20;;;3.80;99.90;;;;;;4973536;28;20692;-63
2022/01/17 00:30:46;;;;;;;15.43;10.53;;;3.80;99.90;;;;;;4973209;28;20678;-63
2022/01/17 00:33:12;;;;;;;9.70;8.70;;;3.80;99.90;;;;;;4973478;28;20187;-63
2022/01/17 00:35:38;;;;;;;15.50;10.07;;;3.80;99.90;;;;;;4973576;28;20179;-63
2022/01/17 00:38:04;;;;;;;12.50;9.60;;;3.80;99.90;;;;;;4973682;28;20777;-63
2022/01/17 00:40:30;;;;;;;11.53;9.83;;;3.80;99.90;;;;;;4973296;28;20570;-63
2022/01/17 00:42:55;;;;;;;11.57;8.83;;;3.90;99.90;;;;;;4973678;28;20442;-63
2022/01/17 00:45:27;;;;;;;12.33;8.93;;;3.90;99.90;;;;;;4973187;28;20210;-63
2022/01/17 00:47:55;;;;;;;10.90;8.83;;;4.00;99.90;;;;;;4973474;28;20684;-63
2022/01/17 00:50:24;;;;;;;11.10;8.60;;;4.00;99.90;;;;;;4973159;28;20443;-63
2022/01/17 00:52:50;;;;;;;11.00;8.80;;;4.00;99.90;;;;;;4973207;28;20957;-63
2022/01/17 00:55:16;;;;;;;11.00;8.50;;;4.10;99.90;;;;;;4972848;28;20440;-63
2022/01/17 00:57:42;;;;;;;7.10;6.50;;;4.20;99.90;;;;;;4972680;28;20464;-63
2022/01/17 01:00:09;;;;;;;11.37;8.10;;;4.10;99.90;;;;;;4972154;28;20263;-63
2022/01/17 01:02:35;;;;;;;12.57;8.40;;;4.10;99.90;;;;;;4973245;28;20698;-63
2022/01/17 01:05:02;;;;;;;9.63;8.10;;;4.10;99.90;;;;;;4972606;28;20945;-63
2022/01/17 01:07:28;;;;;;;9.60;7.77;;;4.20;99.90;;;;;;4972892;28;20439;-63
2022/01/17 01:10:06;;;;;;;11.20;8.70;;;4.20;99.90;;;;;;4972993;28;20439;-63
2022/01/17 01:12:33;;;;;;;11.00;8.20;;;4.20;99.90;;;;;;4969110;28;20268;-63
2022/01/17 01:14:59;;;;;;;10.90;7.90;;;4.20;99.90;;;;;;4972638;28;20442;-63
2022/01/17 01:17:36;;;;;;;10.27;8.50;;;4.30;99.90;;;;;;4972326;28;20901;-63
2022/01/17 01:20:28;;;;;;;13.20;8.57;;;4.20;99.90;;;;;;4972660;28;20428;-63
2022/01/17 01:28:20;;;;;;;9.07;7.77;;;4.20;99.90;;;;;;4972292;28;20438;-63
2022/01/17 01:30:49;;;;;;;10.47;7.97;;;4.30;99.90;;;;;;4972558;28;20458;-63
2022/01/17 01:33:26;;;;;;;10.60;8.10;;;4.20;99.90;;;;;;4972921;28;20661;-63
2022/01/17 01:35:58;;;;;;;11.43;8.40;;;4.20;99.90;;;;;;4972476;28;20439;-63
2022/01/17 01:38:24;;;;;;;12.43;8.90;;;4.20;99.90;;;;;;4972440;28;20439;-63
2022/01/17 01:40:49;;;;;;;10.27;7.90;;;4.30;99.90;;;;;;4972747;28;20478;-63
2022/01/17 01:43:15;;;;;;;10.17;8.03;;;4.30;99.90;;;;;;4972695;28;20172;-63
2022/01/17 01:45:40;;;;;;;9.57;7.37;;;4.40;99.90;;;;;;4972019;28;20180;-63
2022/01/17 01:48:08;;;;;;;8.67;7.33;;;4.30;99.90;;;;;;4972212;28;20180;-63
2022/01/17 01:50:34;;;;;;;9.20;8.30;;;4.30;99.90;;;;;;4972373;28;20286;-63
2022/01/17 01:52:59;;;;;;;9.67;7.73;;;4.30;99.90;;;;;;4972318;28;20526;-63
2022/01/17 01:55:25;;;;;;;12.60;7.40;;;4.30;99.90;;;;;;4972119;28;20180;-63
2022/01/17 01:57:51;;;;;;;9.13;7.17;;;4.20;99.90;;;;;;4972115;28;20230;-63
2022/01/17 02:00:18;;;;;;;10.20;7.30;;;4.10;99.90;;;;;;4972080;28;20192;-63
2022/01/17 02:02:44;;;;;;;10.97;9.07;;;4.00;99.90;;;;;;4972090;28;20226;-63
2022/01/17 02:05:10;;;;;;;9.07;8.03;;;3.90;99.90;;;;;;4971737;28;20438;-63
2022/01/17 02:07:36;;;;;;;10.50;8.27;;;3.90;99.90;;;;;;4972294;28;20953;-63
2022/01/17 02:10:03;;;;;;;10.43;8.47;;;3.90;99.90;;;;;;4972197;28;20538;-63
2022/01/17 02:12:29;;;;;;;11.60;8.90;;;3.80;99.90;;;;;;4975851;28;20329;-63
2022/01/17 02:14:55;;;;;;;11.03;9.37;;;3.90;99.90;;;;;;4976067;28;20538;-63
2022/01/17 02:17:23;;;;;;;12.10;9.43;;;3.80;99.90;;;;;;4976108;28;20211;-63
2022/01/17 02:19:56;;;;;;;13.10;10.10;;;3.80;99.90;;;;;;4975564;28;20506;-63
2022/01/17 02:22:22;;;;;;;16.40;12.07;;;3.80;99.90;;;;;;4976024;28;21012;-63
2022/01/17 02:24:48;;;;;;;15.10;10.00;;;3.80;99.90;;;;;;4975812;28;20470;-63
2022/01/17 02:27:13;;;;;;;16.80;11.40;;;3.70;99.90;;;;;;4975825;28;20173;-64
2022/01/17 02:29:39;;;;;;;14.87;10.77;;;3.70;99.90;;;;;;4975755;28;20216;-63
2022/01/17 02:32:04;;;;;;;13.90;9.80;;;3.70;99.90;;;;;;4975648;28;20291;-63
2022/01/17 02:34:30;;;;;;;12.93;9.90;;;3.70;99.90;;;;;;4976125;28;20216;-63
2022/01/17 02:36:56;;;;;;;15.30;9.57;;;3.80;99.90;;;;;;4975308;28;20215;-63
2022/01/17 02:39:21;;;;;;;13.30;9.30;;;3.70;99.90;;;;;;4975407;28;20208;-63
2022/01/17 02:41:49;;;;;;;11.90;9.20;;;3.80;99.90;;;;;;4975155;28;20204;-63
2022/01/17 02:44:15;;;;;;;11.07;8.73;;;3.80;99.90;;;;;;4975575;28;20274;-63
2022/01/17 02:46:41;;;;;;;13.67;9.00;;;3.80;99.90;;;;;;4975303;28;20443;-63
2022/01/17 02:49:08;;;;;;;12.20;9.50;;;3.80;99.90;;;;;;4975318;28;20435;-63
2022/01/17 02:51:34;;;;;;;13.30;9.90;;;3.80;99.90;;;;;;4975360;28;20196;-63
2022/01/17 02:54:00;;;;;;;13.63;9.30;;;3.80;99.90;;;;;;4975531;28;20518;-63
2022/01/17 02:56:26;;;;;;;11.97;9.43;;;3.80;99.90;;;;;;4974454;28;20558;-63
2022/01/17 02:58:51;;;;;;;10.87;9.03;;;3.90;99.90;;;;;;4970086;28;20267;-63
2022/01/17 03:01:23;;;;;;;13.10;9.47;;;3.80;99.90;;;;;;4974957;28;20270;-63
2022/01/17 03:03:50;;;;;;;11.70;8.53;;;3.90;99.90;;;;;;4964215;28;20189;-63
2022/01/17 03:06:17;;;;;;;15.00;10.00;;;4.00;99.90;;;;;;4974756;28;20439;-63
2022/01/17 03:08:44;;;;;;;11.93;10.10;;;4.10;99.90;;;;;;4974572;28;20439;-63
2022/01/17 03:11:16;;;;;;;13.90;9.77;;;4.20;99.90;;;;;;4974850;28;20457;-63
2022/01/17 03:13:42;;;;;;;12.70;9.83;;;4.20;99.90;;;;;;4966697;28;20448;-63
2022/01/17 03:16:12;;;;;;;14.20;9.57;;;4.20;99.90;;;;;;4974640;28;20850;-63
2022/01/17 03:18:41;;;;;;;9.83;8.83;;;4.20;99.90;;;;;;4974886;28;20450;-63
2022/01/17 03:21:09;;;;;;;12.77;8.50;;;4.20;99.90;;;;;;4974048;28;20456;-63
2022/01/17 03:23:35;;;;;;;11.50;9.20;;;4.30;99.90;;;;;;4974949;28;20439;-63
2022/01/17 03:26:01;;;;;;;10.47;8.50;;;4.30;99.90;;;;;;4973996;28;20435;-63
2022/01/17 03:28:27;;;;;;;13.33;10.00;;;4.40;99.90;;;;;;4975074;28;20446;-63
2022/01/17 03:30:53;;;;;;;13.40;9.70;;;4.50;99.90;;;;;;4975158;28;20204;-63
2022/01/17 03:33:19;;;;;;;12.60;9.13;;;4.50;99.90;;;;;;4974361;28;20168;-63
2022/01/17 03:35:45;;;;;;;10.00;8.13;;;4.50;99.90;;;;;;4974058;28;20444;-63
2022/01/17 03:38:13;;;;;;;14.10;10.13;;;4.50;99.90;;;;;;4974818;28;20339;-63
2022/01/17 03:40:39;;;;;;;11.93;9.70;;;4.50;99.90;;;;;;4974495;28;20196;-63
2022/01/17 03:43:05;;;;;;;14.57;9.40;;;4.30;99.90;;;;;;4974094;28;20515;-63
2022/01/17 03:45:32;;;;;;;11.70;9.70;;;4.40;99.90;;;;;;4974079;28;20436;-63
2022/01/17 03:47:57;;;;;;;11.97;9.30;;;4.40;99.90;;;;;;4973967;28;20811;-63
2022/01/17 03:50:25;;;;;;;11.00;8.03;;;4.40;99.90;;;;;;4974192;28;20459;-63
2022/01/17 03:52:51;;;;;;;10.10;8.17;;;4.40;99.90;;;;;;4974394;28;20471;-63
2022/01/17 03:55:19;;;;;;;11.43;8.20;;;4.50;99.90;;;;;;4974042;28;20436;-63
2022/01/17 03:57:44;;;;;;;11.87;8.23;;;4.50;99.90;;;;;;4975752;28;20215;-63
2022/01/17 04:00:18;;;;;;;12.97;9.60;;;4.50;99.90;;;;;;4974225;28;20725;-63
2022/01/17 04:02:44;;;;;;;11.33;8.73;;;4.50;99.90;;;;;;4974599;28;20184;-63
2022/01/17 04:05:10;;;;;;;10.93;7.17;;;4.50;99.90;;;;;;4973703;28;20433;-64
2022/01/17 04:07:36;;;;;;;10.23;8.43;;;4.40;99.90;;;;;;4974317;28;20192;-63
2022/01/17 04:10:02;;;;;;;13.20;9.77;;;4.40;99.90;;;;;;4973750;28;20176;-63
2022/01/17 04:12:27;;;;;;;12.90;8.30;;;4.40;99.90;;;;;;4973928;28;20263;-63
2022/01/17 04:14:55;;;;;;;11.00;8.73;;;4.40;99.90;;;;;;4973758;28;20534;-64
2022/01/17 04:17:24;;;;;;;10.93;8.17;;;4.30;99.90;;;;;;4973190;28;20192;-63
2022/01/17 04:19:52;;;;;;;13.87;9.57;;;4.40;99.90;;;;;;4973885;28;20444;-63
2022/01/17 04:22:18;;;;;;;11.33;9.67;;;4.50;99.90;;;;;;4973808;28;20451;-64
2022/01/17 04:24:43;;;;;;;11.20;9.43;;;4.30;99.90;;;;;;4973953;28;20436;-63
2022/01/17 04:27:09;;;;;;;14.83;10.97;;;4.20;99.90;;;;;;4973122;28;20319;-63
2022/01/17 04:29:38;;;;;;;16.80;11.70;;;4.10;99.90;;;;;;4973814;28;20211;-64
2022/01/17 04:32:04;;;;;;;10.57;9.53;;;4.10;99.90;;;;;;4973829;28;20196;-63
2022/01/17 04:34:30;;;;;;;12.07;8.77;;;4.20;99.90;;;;;;4972638;28;20448;-63
2022/01/17 04:36:55;;;;;;;16.00;10.27;;;4.00;99.90;;;;;;4973267;28;20196;-64
2022/01/17 04:39:21;;;;;;;12.00;9.70;;;3.90;99.90;;;;;;4973572;28;20176;-64
2022/01/17 04:41:46;;;;;;;13.93;11.20;;;3.80;99.90;;;;;;4973468;28;20610;-64
2022/01/17 04:46:56;;;;;;;10.70;9.30;;;3.70;99.90;;;;;;4973090;28;20203;-63
2022/01/17 04:49:21;;;;;;;12.80;10.67;;;3.70;99.90;;;;;;4973100;28;20447;-63
2022/01/17 04:51:53;;;;;;;11.60;10.40;;;3.70;99.90;;;;;;4972753;28;20254;-63
2022/01/17 04:56:58;;;;;;;13.20;9.57;;;3.70;99.90;;;;;;4972685;28;20976;-63
2022/01/17 04:59:24;;;;;;;12.40;9.60;;;3.80;99.90;;;;;;4973121;28;20441;-63
2022/01/17 05:01:49;;;;;;;9.50;8.50;;;3.80;99.90;;;;;;4972527;28;20207;-63
2022/01/17 05:04:15;;;;;;;12.17;9.10;;;3.80;99.90;;;;;;4973100;28;20638;-64
2022/01/17 05:06:41;;;;;;;12.30;9.67;;;3.70;99.90;;;;;;4972609;28;20186;-63
2022/01/17 05:09:06;;;;;;;12.00;8.73;;;3.80;99.90;;;;;;4972997;28;20223;-63
2022/01/17 05:11:32;;;;;;;18.10;10.10;;;3.80;99.90;;;;;;4973035;28;20199;-65
2022/01/17 05:13:58;;;;;;;12.30;9.90;;;3.80;99.90;;;;;;4972823;28;20200;-63
2022/01/17 05:16:32;;;;;;;14.73;9.20;;;3.80;99.90;;;;;;4972556;28;20490;-63
2022/01/17 05:21:41;;;;;;;13.40;9.50;;;3.80;99.90;;;;;;4972191;28;20462;-63
2022/01/17 05:24:07;;;;;;;10.10;8.17;;;3.90;99.90;;;;;;4972636;28;20436;-63
2022/01/17 05:26:32;;;;;;;9.37;8.10;;;3.90;99.90;;;;;;4972493;28;20188;-63
2022/01/17 05:28:58;;;;;;;11.80;9.30;;;4.00;99.90;;;;;;4972848;28;20207;-63
2022/01/17 05:31:23;;;;;;;12.47;8.50;;;4.00;99.90;;;;;;4972619;28;20287;-63
2022/01/17 05:33:49;;;;;;;15.07;9.57;;;4.00;99.90;;;;;;4972152;28;20182;-63
2022/01/17 05:36:14;;;;;;;17.00;10.50;;;4.10;99.90;;;;;;4972399;28;20176;-63
2022/01/17 05:38:40;;;;;;;9.50;8.13;;;4.10;99.90;;;;;;4972658;28;20223;-63
2022/01/17 05:41:06;;;;;;;14.57;10.00;;;4.00;99.90;;;;;;4972755;28;20640;-64
2022/01/17 05:43:31;;;;;;;17.20;9.77;;;4.00;99.90;;;;;;4972851;28;20184;-63
2022/01/17 05:45:57;;;;;;;13.60;8.80;;;3.90;99.90;;;;;;4971557;28;20204;-63
2022/01/17 05:48:23;;;;;;;12.03;9.30;;;3.90;99.90;;;;;;4972446;28;20593;-63
2022/01/17 05:50:48;;;;;;;15.37;10.00;;;3.90;99.90;;;;;;4972002;28;20230;-64
2022/01/17 05:53:14;;;;;;;13.00;8.80;;;3.90;99.90;;;;;;4972142;28;20547;-64
2022/01/17 05:55:40;;;;;;;13.97;9.93;;;3.80;99.90;;;;;;4971850;28;20211;-64
2022/01/17 05:58:06;;;;;;;14.23;10.80;;;3.80;99.90;;;;;;4971928;28;20200;-64
2022/01/17 06:00:32;;;;;;;10.87;8.90;;;3.80;99.90;;;;;;4970944;28;20470;-64
2022/01/17 06:02:59;;;;;;;10.03;7.90;;;3.80;99.90;;;;;;4965431;28;20218;-64
2022/01/17 06:05:24;;;;;;;9.93;8.43;;;3.80;99.90;;;;;;4971733;28;20933;-63
2022/01/17 06:07:50;;;;;;;18.70;9.73;;;3.90;99.90;;;;;;4972532;28;20192;-63
2022/01/17 06:10:15;;;;;;;15.50;10.97;;;3.90;99.90;;;;;;4972357;28;20185;-63
2022/01/17 06:12:41;;;;;;;15.03;9.20;;;3.90;99.90;;;;;;4972409;28;20742;-63
2022/01/17 06:15:07;;;;;;;13.23;9.00;;;3.90;99.90;;;;;;4972159;28;20188;-64
2022/01/17 06:17:33;;;;;;;10.90;9.80;;;3.90;99.90;;;;;;4972041;28;20204;-64
2022/01/17 06:19:59;;;;;;;10.97;8.83;;;4.00;99.90;;;;;;4972299;28;20964;-64
2022/01/17 06:22:24;;;;;;;11.57;8.60;;;4.00;99.90;;;;;;4972270;28;20748;-63
2022/01/17 06:24:50;;;;;;;9.57;7.90;;;4.00;99.90;;;;;;4972544;28;20439;-64
2022/01/17 06:27:17;;;;;;;11.47;8.57;;;4.00;99.90;;;;;;4972095;28;20230;-63
2022/01/17 06:29:42;;;;;;;17.77;11.70;;;4.00;99.90;;;;;;4976335;28;20191;-63
2022/01/17 06:32:08;;;;;;;12.43;10.77;;;4.00;99.90;;;;;;4975645;28;20468;-63
2022/01/17 06:34:33;;;;;;;10.07;8.30;;;4.00;99.90;;;;;;4972408;28;20200;-63
2022/01/17 06:36:59;;;;;;;10.83;8.60;;;4.10;99.90;;;;;;4971416;28;20196;-64
2022/01/17 06:39:24;;;;;;;13.30;9.13;;;4.00;99.90;;;;;;4962895;28;20666;-63
2022/01/17 06:41:50;;;;;;;9.60;7.90;;;4.00;99.90;;;;;;4982360;28;20204;-63
2022/01/17 06:44:17;;;;;;;10.47;8.10;;;4.00;99.90;;;;;;4972302;28;20177;-64
2022/01/17 06:46:42;;;;;;;10.13;8.47;;;4.00;99.90;;;;;;4967804;28;20216;-63
2022/01/17 06:49:08;;;;;;;11.93;9.83;;;4.00;99.90;;;;;;4974754;28;20900;-63
2022/01/17 06:51:35;;;;;;;11.67;8.30;;;4.00;99.90;;;;;;4973205;28;20227;-63
2022/01/17 06:54:00;;;;;;;9.60;8.60;;;4.00;99.90;;;;;;4979337;28;20477;-63
2022/01/17 06:56:26;;;;;;;10.60;8.73;;;4.00;99.90;;;;;;4976203;28;20545;-63
2022/01/17 06:58:52;;;;;;;9.40;7.43;;;4.00;99.90;;;;;;4975284;28;20208;-63
2022/01/17 07:01:20;;;;;;;11.57;10.10;;;4.00;99.90;;;;;;4975450;28;20226;-63
2022/01/17 07:03:46;;;;;;;13.40;9.80;;;4.00;99.90;;;;;;4976564;28;20206;-63
2022/01/17 07:06:12;;;;;;;10.93;8.63;;;4.00;99.90;;;;;;4980771;28;20479;-63
2022/01/17 07:08:37;;;;;;;10.73;8.27;;;4.00;99.90;;;;;;4975641;28;20435;-62
2022/01/17 07:11:03;;;;;;;9.20;8.10;;;4.00;99.90;;;;;;4979048;28;20205;-63
2022/01/17 07:13:29;;;;;;;9.47;8.47;;;4.00;99.90;;;;;;4975207;28;20183;-63
2022/01/17 07:15:54;;;;;;;10.70;9.00;;;4.00;99.90;;;;;;4974516;28;20177;-63
2022/01/17 07:18:20;;;;;;;10.20;8.33;;;4.10;99.90;;;;;;4974191;28;20227;-63
2022/01/17 07:20:45;;;;;;;9.50;7.57;;;4.10;99.90;;;;;;4974024;28;20650;-64
2022/01/17 07:23:11;;;;;;;8.30;6.47;;;4.10;99.90;;;;;;4975086;28;20188;-63
2022/01/17 07:25:38;;;;;;;8.73;7.33;;;4.20;99.90;;;;;;4969907;28;20192;-64
2022/01/17 07:28:06;;;;;;;7.83;6.70;;;4.30;99.90;;;;;;4969152;28;20191;-63
2022/01/17 07:30:31;;;;;;;8.20;7.30;;;4.20;99.90;;;;;;4974822;28;20459;-63
2022/01/17 07:32:57;;;;;;;8.73;6.37;;;4.20;99.90;;;;;;4973298;28;20431;-64
2022/01/17 07:35:22;;;;;;;11.30;6.93;;;4.20;99.90;;;;;;4972429;28;20235;-63
2022/01/17 07:37:48;;;;;;;9.03;7.10;;;4.20;99.90;;;;;;4974756;28;20279;-64
2022/01/17 07:40:13;;;;;;;8.37;7.23;;;4.10;99.90;;;;;;4974954;28;20255;-63
2022/01/17 07:42:39;;;;;;;10.10;7.90;;;4.10;99.90;;;;;;4974756;28;20167;-63
2022/01/17 07:45:16;;;;;;;11.80;7.27;;;4.20;99.90;;;;;;4974021;28;20709;-64
2022/01/17 07:47:55;;;;;;;9.23;7.57;;;4.20;99.90;;;;;;4962077;28;20267;-63
2022/01/17 07:50:23;;;;;;;10.30;7.80;;;4.20;99.90;;;;;;4949211;28;21070;-64
2022/01/17 07:52:50;;;;;;;9.23;7.17;;;4.20;99.90;;;;;;4963462;28;20440;-62
2022/01/17 07:55:17;;;;;;;9.40;7.50;;;4.20;99.90;;;;;;4973795;28;20498;-63
2022/01/17 07:57:43;;;;;;;8.23;7.27;;;4.30;99.90;;;;;;4973562;28;20538;-62
2022/01/17 08:00:12;;;;;;;11.03;8.00;;;4.30;99.90;;;;;;4965157;28;20450;-63
2022/01/17 08:02:37;;;;;;;12.37;8.17;;;4.20;99.90;;;;;;4973260;28;20176;-63
2022/01/17 08:05:04;;;;;;;9.67;7.47;;;4.30;99.90;;;;;;4970089;28;20450;-64
2022/01/17 08:07:29;;;;;;;10.03;7.10;;;4.30;99.90;;;;;;4973977;28;20638;-64
2022/01/17 08:09:55;;;;;;;10.63;6.87;;;4.20;99.90;;;;;;4970859;28;20475;-64
2022/01/17 08:12:20;;;;;;;8.80;7.13;;;4.20;99.90;;;;;;4974028;28;20571;-64
2022/01/17 08:14:46;;;;;;;11.00;7.83;;;4.30;99.90;;;;;;4973932;28;20208;-64
2022/01/17 08:17:12;;;;;;;7.40;6.70;;;4.30;99.90;;;;;;4972803;28;20200;-64
2022/01/17 08:19:38;;;;;;;9.80;7.63;;;4.30;99.90;;;;;;4970553;28;20177;-65
2022/01/17 08:22:05;;;;;;;10.23;7.57;;;4.40;99.90;;;;;;4973720;28;20582;-64
2022/01/17 08:24:32;;;;;;;9.90;8.00;;;4.40;99.90;;;;;;4972827;28;20432;-64
2022/01/17 08:26:58;;;;;;;9.40;6.93;;;4.30;99.90;;;;;;4973507;28;20436;-64
2022/01/17 08:29:25;;;;;;;10.63;7.77;;;4.30;99.90;;;;;;4967049;28;20435;-64
2022/01/17 08:31:51;;;;;;;12.30;9.30;;;4.40;99.90;;;;;;4973081;28;20506;-64
2022/01/17 08:34:17;;;;;;;10.27;8.40;;;4.50;99.90;;;;;;4973938;28;20463;-64
2022/01/17 08:36:44;;;;;;;10.13;6.77;;;4.40;99.90;;;;;;4973514;28;20745;-65
2022/01/17 08:39:10;;;;;;;9.97;7.10;;;4.50;99.90;;;;;;4969363;28;20493;-64
2022/01/17 08:41:37;;;;;;;12.00;8.00;;;4.60;99.90;;;;;;4973469;28;20455;-64
2022/01/17 08:44:03;;;;;;;7.37;5.83;;;4.70;99.90;;;;;;4972350;28;20794;-64
2022/01/17 08:46:28;;;;;;;7.43;5.90;;;4.70;99.90;;;;;;4972596;28;20455;-64
2022/01/17 08:48:54;;;;;;;7.70;6.10;;;4.80;99.90;;;;;;4970135;28;20633;-64
2022/01/17 08:51:20;;;;;;;7.47;6.77;;;4.90;99.90;;;;;;4973090;28;20196;-64
2022/01/17 08:53:46;;;;;;;9.30;6.40;;;5.10;99.90;;;;;;4972939;28;20933;-65
2022/01/17 08:56:11;;;;;;;7.77;5.80;;;5.40;99.90;;;;;;4972963;28;20176;-65
2022/01/17 08:58:37;;;;;;;5.80;5.30;;;6.50;99.90;;;;;;4968981;28;20172;-65
2022/01/17 09:01:03;;;;;;;6.17;5.57;;;8.10;99.90;;;;;;4972333;28;20208;-65
2022/01/17 09:03:29;;;;;;;5.93;5.33;;;9.30;99.90;;;;;;4972252;28;20439;-65
2022/01/17 09:05:54;;;;;;;5.80;5.20;;;9.90;99.90;;;;;;4972784;28;21020;-64
2022/01/17 09:08:22;;;;;;;4.93;4.40;;;10.10;99.90;;;;;;4969698;28;21010;-65
2022/01/17 09:10:49;;;;;;;6.43;5.33;;;10.60;99.90;;;;;;4971085;28;20633;-64
2022/01/17 09:13:15;;;;;;;5.53;5.00;;;11.50;99.90;;;;;;4969562;28;20443;-64
2022/01/17 09:15:40;;;;;;;6.07;5.47;;;12.30;99.90;;;;;;4969419;28;20442;-64
2022/01/17 09:18:06;;;;;;;6.27;5.67;;;10.90;99.90;;;;;;4957830;28;20224;-64
2022/01/17 09:20:34;;;;;;;5.40;4.90;;;9.70;99.90;;;;;;4966402;28;20259;-65
2022/01/17 09:23:02;;;;;;;7.87;6.00;;;9.20;99.90;;;;;;4972763;28;20941;-66
2022/01/17 09:25:28;;;;;;;4.60;4.20;;;10.00;99.90;;;;;;4972200;28;20471;-64
2022/01/17 09:27:53;;;;;;;5.77;5.00;;;10.50;99.90;;;;;;4971604;28;21001;-64
2022/01/17 09:30:19;;;;;;;5.77;5.20;;;10.40;99.90;;;;;;4971006;28;20192;-64
2022/01/17 09:32:46;;;;;;;4.97;4.47;;;9.90;99.90;;;;;;4972838;28;20180;-63
2022/01/17 09:35:12;;;;;;;6.53;5.93;;;9.20;99.90;;;;;;4972067;28;20700;-64
2022/01/17 09:37:38;;;;;;;6.50;5.90;;;8.50;99.90;;;;;;4972577;28;20463;-64
2022/01/17 09:40:05;;;;;;;6.23;5.60;;;7.90;99.90;;;;;;4968365;28;20431;-65
2022/01/17 09:42:35;;;;;;;6.20;5.60;;;7.90;99.90;;;;;;4971311;28;20479;-64
2022/01/17 09:45:02;;;;;;;10.20;7.13;;;7.90;99.90;;;;;;4972034;28;20463;-64
2022/01/17 09:47:28;;;;;;;6.30;5.70;;;8.10;99.90;;;;;;4972359;28;21016;-64
2022/01/17 09:49:56;;;;;;;5.37;4.87;;;8.20;99.90;;;;;;4968213;28;20440;-64
2022/01/17 09:54:52;;;;;;;3.50;3.20;;;7.60;99.90;;;;;;4972525;28;20490;-64
2022/01/17 09:57:20;;;;;;;3.03;2.73;;;7.20;99.90;;;;;;4972180;28;20487;-64
2022/01/17 09:59:46;;;;;;;6.87;4.60;;;7.10;99.90;;;;;;4965240;28;20451;-64
2022/01/17 10:02:13;;;;;;;5.00;3.30;;;7.20;99.90;;;;;;4972167;28;20486;-64
2022/01/17 10:04:39;;;;;;;4.63;4.23;;;7.20;99.90;;;;;;4972290;28;20521;-64
2022/01/17 10:07:06;;;;;;;4.80;4.00;;;7.20;99.90;;;;;;4969893;28;20447;-64
2022/01/17 10:09:34;;;;;;;4.50;3.37;;;7.60;99.90;;;;;;4968663;28;20444;-64
2022/01/17 10:12:14;;;;;;;3.20;2.90;;;8.10;99.90;;;;;;4972560;28;20470;-64
2022/01/17 10:14:40;;;;;;;3.60;3.30;;;8.50;99.90;;;;;;4972497;28;20438;-64
2022/01/17 10:17:08;;;;;;;2.50;2.30;;;8.70;99.90;;;;;;4972069;28;20455;-65
2022/01/17 10:19:35;;;;;;;3.40;3.10;;;8.50;99.90;;;;;;4968531;28;20187;-64
2022/01/17 10:22:03;;;;;;;3.80;2.90;;;8.60;99.90;;;;;;4969191;28;20459;-65
2022/01/17 10:24:43;;;;;;;3.60;2.80;;;9.80;99.90;;;;;;4972073;28;20439;-65
2022/01/17 10:35:35;;;;;;;5.83;2.60;;;9.70;99.90;;;;;;4974761;28;20434;-64
2022/01/17 10:38:11;;;;;;;6.87;4.03;;;9.40;99.90;;;;;;4972652;28;20467;-65
2022/01/17 10:40:40;;;;;;;3.33;3.03;;;9.10;99.90;;;;;;4975233;28;20844;-64
2022/01/17 10:43:17;;;;;;;4.70;2.90;;;8.60;99.90;;;;;;4975277;28;20481;-65
2022/01/17 10:45:43;;;;;;;3.07;2.87;;;8.40;99.90;;;;;;4973513;28;20490;-64
2022/01/17 10:48:10;;;;;;;2.87;2.63;;;8.10;99.90;;;;;;4972467;28;20485;-64
2022/01/17 10:50:38;;;;;;;3.00;2.80;;;7.70;99.90;;;;;;4974752;28;20463;-64
2022/01/17 10:53:07;;;;;;;5.00;2.67;;;7.60;99.90;;;;;;4965495;28;20452;-65
2022/01/17 10:55:39;;;;;;;4.20;2.50;;;7.50;99.90;;;;;;4963396;28;21094;-64
2022/01/17 10:58:11;;;;;;;3.10;2.80;;;7.40;99.90;;;;;;4967726;28;20522;-65
2022/01/17 11:00:39;;;;;;;2.20;2.00;;;7.30;99.90;;;;;;4970927;28;20562;-64
2022/01/17 11:03:08;;;;;;;2.07;1.97;;;7.40;99.90;;;;;;4971730;28;20447;-64
2022/01/17 11:05:36;;;;;;;5.00;2.60;;;7.30;99.90;;;;;;4970533;28;20444;-66
2022/01/17 11:08:03;;;;;;;2.70;2.50;;;7.40;99.90;;;;;;4970059;28;20937;-65
2022/01/17 11:10:36;;;;;;;3.83;3.40;;;7.50;99.90;;;;;;4971277;28;20478;-64
2022/01/17 11:13:04;;;;;;;2.43;1.97;;;7.40;99.90;;;;;;4971937;28;20498;-64
2022/01/17 11:15:33;;;;;;;1.90;1.80;;;7.40;99.90;;;;;;4972128;28;20444;-64
2022/01/17 11:18:04;;;;;;;5.67;4.13;;;7.40;99.90;;;;;;4961975;28;20468;-64
2022/01/17 11:20:29;;;;;;;7.73;6.57;;;7.30;99.90;;;;;;4970863;28;20459;-64
2022/01/17 11:22:58;;;;;;;52.03;32.17;;;7.30;99.90;;;;;;4971810;28;20439;-63
2022/01/17 11:25:36;;;;;;;5.17;3.57;;;7.30;99.90;;;;;;4971906;28;20184;-64
2022/01/17 11:28:05;;;;;;;8.20;5.37;;;7.30;99.90;;;;;;4968684;28;20463;-65
2022/01/17 11:30:34;;;;;;;4.40;2.40;;;7.20;99.90;;;;;;4962656;28;20475;-64
2022/01/17 11:33:03;;;;;;;3.33;2.43;;;7.20;99.90;;;;;;4970319;28;20804;-64
2022/01/17 11:35:31;;;;;;;4.13;3.00;;;7.00;99.90;;;;;;4973366;28;20833;-64
2022/01/17 11:37:59;;;;;;;6.57;3.13;;;7.10;99.90;;;;;;4970156;28;20459;-64
2022/01/17 11:40:30;;;;;;;2.97;2.47;;;7.00;99.90;;;;;;4957592;28;20551;-62
2022/01/17 11:42:58;;;;;;;2.17;1.90;;;7.00;99.90;;;;;;4968933;28;20448;-63
2022/01/17 11:45:23;;;;;;;4.83;2.87;;;7.00;99.90;;;;;;4970981;28;20439;-64
2022/01/17 11:48:02;;;;;;;9.27;4.27;;;7.00;99.90;;;;;;4971448;28;20440;-64
2022/01/17 11:50:28;;;;;;;2.20;1.70;;;7.10;99.90;;;;;;4969818;28;20210;-64
2022/01/17 11:53:00;;;;;;;3.57;3.20;;;7.00;99.90;;;;;;4971442;28;20451;-65
2022/01/17 11:55:43;;;;;;;4.77;2.53;;;7.00;99.90;;;;;;4970961;28;20263;-66
2022/01/17 11:58:24;;;;;;;2.50;2.30;;;6.70;99.90;;;;;;4965415;28;20554;-64
2022/01/17 12:01:02;;;;;;;3.30;2.83;;;6.60;99.90;;;;;;4970029;28;20478;-62
2022/01/17 12:03:52;;;;;;;4.20;3.57;;;6.40;99.90;;;;;;4971485;28;20435;-63
2022/01/17 12:06:19;;;;;;;3.57;3.17;;;6.40;99.90;;;;;;4970870;28;20443;-64
2022/01/17 12:08:45;;;;;;;3.37;3.07;;;6.40;99.90;;;;;;4965053;28;20446;-64
2022/01/17 12:11:26;;;;;;;5.70;3.50;;;6.60;99.90;;;;;;4970450;28;20451;-64
2022/01/17 12:13:52;;;;;;;3.83;3.50;;;6.70;99.90;;;;;;4970813;28;20169;-64
2022/01/17 12:16:34;;;;;;;4.07;3.73;;;6.60;99.90;;;;;;4970716;28;20446;-64
2022/01/17 12:18:59;;;;;;;2.93;2.63;;;6.60;99.90;;;;;;4967574;28;20835;-65
2022/01/17 12:21:40;;;;;;;6.00;5.40;;;6.80;99.90;;;;;;4970813;28;20479;-64
2022/01/17 12:24:15;;;;;;;4.23;3.93;;;7.20;99.90;;;;;;4970410;28;20556;-64
2022/01/17 12:26:41;;;;;;;3.50;3.20;;;7.40;99.90;;;;;;4970288;28;20500;-64
2022/01/17 12:29:07;;;;;;;4.67;3.73;;;7.40;99.90;;;;;;4967373;28;20475;-64
2022/01/17 12:31:48;;;;;;;9.60;4.07;;;7.20;99.90;;;;;;4970590;28;20993;-63
2022/01/17 12:34:23;;;;;;;3.90;3.60;;;7.00;99.90;;;;;;4970844;28;20210;-64
2022/01/17 12:36:51;;;;;;;6.50;4.27;;;7.20;99.90;;;;;;4970226;28;20462;-64
2022/01/17 12:39:25;;;;;;;8.30;4.30;;;7.50;99.90;;;;;;4968124;28;20439;-64
2022/01/17 12:41:53;;;;;;;3.63;3.33;;;7.70;99.90;;;;;;4970633;28;20467;-64
2022/01/17 12:44:24;;;;;;;4.03;3.70;;;7.80;99.90;;;;;;4970412;28;20806;-64
2022/01/17 12:46:54;;;;;;;5.83;4.10;;;7.60;99.90;;;;;;4970303;28;20997;-64
2022/01/17 12:49:21;;;;;;;3.03;2.83;;;7.60;99.90;;;;;;4967143;28;20444;-64
2022/01/17 12:51:49;;;;;;;4.80;4.20;;;7.60;99.90;;;;;;4970106;28;20467;-63
2022/01/17 12:54:19;;;;;;;3.23;2.80;;;7.80;99.90;;;;;;4969490;28;20534;-63
2022/01/17 12:56:48;;;;;;;3.43;3.13;;;8.10;99.90;;;;;;4970343;28;20965;-64
2022/01/17 12:59:18;;;;;;;3.87;3.23;;;8.50;99.90;;;;;;4966644;28;20832;-64
2022/01/17 13:01:52;;;;;;;5.90;4.77;;;8.70;99.90;;;;;;4969475;28;20490;-64
2022/01/17 13:04:19;;;;;;;3.23;3.03;;;8.50;99.90;;;;;;4970025;28;20488;-64
2022/01/17 13:06:48;;;;;;;3.33;3.03;;;8.40;99.90;;;;;;4969976;28;20526;-64
2022/01/17 13:09:16;;;;;;;3.90;3.40;;;8.40;99.90;;;;;;4966405;28;20985;-64
2022/01/17 13:11:45;;;;;;;3.93;3.63;;;8.40;99.90;;;;;;4969725;28;20463;-63
2022/01/17 13:14:18;;;;;;;6.97;5.70;;;8.10;99.90;;;;;;4969257;28;20455;-64
2022/01/17 13:16:45;;;;;;;4.67;3.80;;;8.60;99.90;;;;;;4969670;28;20463;-64
2022/01/17 13:19:13;;;;;;;3.37;3.00;;;9.80;99.90;;;;;;4966325;28;20443;-64